createdAt,value
2023-04-18T00:00:31.536Z,1.20
2023-04-18T00:02:59.262Z,1.42
2023-04-18T00:05:27.943Z,1.30
2023-04-18T00:07:54.675Z,1.48
2023-04-18T00:10:21.513Z,2.22
2023-04-18T00:12:49.034Z,1.85
2023-04-18T00:15:15.978Z,1.10
2023-04-18T00:17:42.982Z,1.42
2023-04-18T00:20:13.468Z,1.40
2023-04-18T00:22:42.751Z,1.30
2023-04-18T00:25:11.078Z,1.40
2023-04-18T00:27:41.672Z,1.38
2023-04-18T00:30:09.182Z,1.60
2023-04-18T00:32:37.815Z,1.40
2023-04-18T00:35:05.157Z,1.48
2023-04-18T00:37:31.826Z,1.60
2023-04-18T00:39:58.704Z,1.50
2023-04-18T00:42:29.434Z,1.40
2023-04-18T00:44:56.473Z,1.50
2023-04-18T00:47:23.311Z,1.42
2023-04-18T00:49:50.522Z,1.70
2023-04-18T00:52:18.545Z,1.50
2023-04-18T00:54:46.731Z,1.48
2023-04-18T00:57:13.733Z,1.27
2023-04-18T00:59:40.799Z,1.30
2023-04-18T01:02:07.950Z,0.98
2023-04-18T01:04:35.031Z,1.50
2023-04-18T01:07:02.322Z,0.90
2023-04-18T01:09:29.420Z,1.23
2023-04-18T01:11:56.274Z,1.05
2023-04-18T01:14:23.445Z,0.90
2023-04-18T01:16:50.149Z,1.00
2023-04-18T01:19:18.872Z,0.82
2023-04-18T01:21:45.686Z,1.00
2023-04-18T01:24:15.626Z,1.00
2023-04-18T01:26:44.841Z,1.00
2023-04-18T01:29:12.228Z,0.88
2023-04-18T01:31:40.033Z,0.95
2023-04-18T01:34:07.725Z,0.90
2023-04-18T01:36:35.532Z,1.00
2023-04-18T01:39:02.685Z,0.75
2023-04-18T01:41:32.572Z,1.00
2023-04-18T01:43:59.908Z,0.80
2023-04-18T01:46:27.021Z,1.20
2023-04-18T01:48:54.023Z,0.60
2023-04-18T01:51:21.617Z,0.95
2023-04-18T01:53:48.319Z,0.90
2023-04-18T01:56:14.953Z,0.68
2023-04-18T01:58:41.797Z,1.00
2023-04-18T02:01:08.797Z,0.82
2023-04-18T02:03:35.791Z,0.82
2023-04-18T02:06:05.884Z,0.75
2023-04-18T02:08:35.658Z,0.90
2023-04-18T02:11:05.058Z,0.93
2023-04-18T02:13:32.098Z,0.70
2023-04-18T02:15:58.728Z,0.70
2023-04-18T02:18:26.005Z,1.02
2023-04-18T02:20:52.733Z,1.02
2023-04-18T02:23:21.723Z,0.70
2023-04-18T02:25:48.381Z,0.90
2023-04-18T02:28:17.503Z,0.73
2023-04-18T02:30:44.259Z,0.80
2023-04-18T02:33:11.017Z,1.05
2023-04-18T02:35:38.772Z,0.80
2023-04-18T02:38:05.848Z,1.05
2023-04-18T02:40:32.455Z,1.27
2023-04-18T02:42:59.667Z,1.10
2023-04-18T02:45:26.432Z,1.10
2023-04-18T02:47:56.453Z,1.00
2023-04-18T02:50:24.826Z,0.98
2023-04-18T02:52:53.275Z,1.13
2023-04-18T02:55:22.378Z,0.98
2023-04-18T02:57:49.197Z,1.00
2023-04-18T03:00:52.639Z,0.88
2023-04-18T03:03:38.107Z,1.10
2023-04-18T03:06:22.394Z,0.70
2023-04-18T03:08:49.142Z,0.90
2023-04-18T03:11:16.663Z,1.00
2023-04-18T03:13:43.566Z,0.98
2023-04-18T03:16:11.566Z,0.88
2023-04-18T03:18:39.663Z,0.88
2023-04-18T03:21:07.152Z,0.90
2023-04-18T03:23:34.688Z,0.95
2023-04-18T03:26:08.189Z,0.70
2023-04-18T03:28:37.740Z,0.85
2023-04-18T03:31:05.023Z,0.90
2023-04-18T03:33:34.376Z,1.23
2023-04-18T03:36:08.734Z,0.85
2023-04-18T03:38:35.485Z,1.30
2023-04-18T03:41:02.960Z,1.10
2023-04-18T03:43:33.779Z,0.82
2023-04-18T03:46:01.105Z,0.82
2023-04-18T03:48:29.096Z,0.80
2023-04-18T03:50:59.876Z,0.95
2023-04-18T03:53:26.893Z,1.10
2023-04-18T03:55:56.139Z,0.85
2023-04-18T03:58:29.451Z,1.15
2023-04-18T04:00:56.109Z,1.13
2023-04-18T04:03:22.817Z,1.45
2023-04-18T04:05:49.761Z,1.20
2023-04-18T04:08:16.508Z,0.85
2023-04-18T04:10:45.116Z,1.20
2023-04-18T04:13:11.966Z,1.00
2023-04-18T04:15:40.620Z,1.02
2023-04-18T04:18:09.871Z,1.13
2023-04-18T04:20:39.778Z,1.45
2023-04-18T04:23:13.726Z,1.27
2023-04-18T04:25:42.644Z,1.50
2023-04-18T04:28:22.956Z,1.20
2023-04-18T04:30:55.722Z,1.20
2023-04-18T04:33:25.515Z,1.13
2023-04-18T04:35:55.653Z,1.10
2023-04-18T04:38:25.893Z,0.82
2023-04-18T04:40:54.036Z,1.40
2023-04-18T04:43:21.712Z,1.20
2023-04-18T04:45:51.594Z,1.52
2023-04-18T04:48:22.609Z,1.00
2023-04-18T04:51:00.599Z,1.10
2023-04-18T04:53:32.257Z,1.10
2023-04-18T04:56:01.710Z,1.50
2023-04-18T04:58:28.512Z,1.33
2023-04-18T05:01:13.988Z,1.10
2023-04-18T05:03:41.011Z,1.15
2023-04-18T05:06:07.868Z,1.20
2023-04-18T05:08:34.816Z,1.00
2023-04-18T05:11:01.983Z,1.98
2023-04-18T05:13:28.706Z,1.10
2023-04-18T05:15:55.665Z,1.55
2023-04-18T05:18:22.389Z,1.10
2023-04-18T05:20:49.280Z,1.50
2023-04-18T05:23:16.311Z,1.70
2023-04-18T05:25:42.977Z,1.75
2023-04-18T05:28:09.727Z,1.38
2023-04-18T05:30:36.423Z,1.30
2023-04-18T05:33:03.626Z,1.20
2023-04-18T05:35:31.291Z,1.40
2023-04-18T05:37:58.868Z,1.33
2023-04-18T05:40:27.317Z,1.33
2023-04-18T05:42:53.938Z,1.20
2023-04-18T05:45:20.614Z,0.85
2023-04-18T05:47:47.554Z,1.23
2023-04-18T05:50:14.377Z,1.58
2023-04-18T05:52:41.126Z,1.40
2023-04-18T05:55:08.168Z,1.52
2023-04-18T05:57:34.924Z,2.00
2023-04-18T06:00:03.387Z,1.70
2023-04-18T06:02:39.487Z,1.50
2023-04-18T06:05:07.798Z,2.17
2023-04-18T06:07:34.798Z,1.90
2023-04-18T06:10:01.713Z,1.98
2023-04-18T06:12:28.793Z,1.77
2023-04-18T06:14:55.547Z,1.67
2023-04-18T06:17:22.147Z,1.75
2023-04-18T06:19:48.818Z,1.90
2023-04-18T06:22:15.679Z,1.52
2023-04-18T06:24:42.417Z,1.70
2023-04-18T06:27:17.562Z,1.75
2023-04-18T06:29:50.988Z,1.27
2023-04-18T06:32:17.664Z,1.65
2023-04-18T06:34:44.815Z,1.35
2023-04-18T06:37:11.795Z,1.23
2023-04-18T06:39:38.528Z,1.48
2023-04-18T06:42:05.580Z,1.48
2023-04-18T06:44:32.653Z,2.10
2023-04-18T06:46:59.460Z,1.35
2023-04-18T06:49:26.694Z,1.20
2023-04-18T06:51:53.574Z,1.33
2023-04-18T06:54:20.510Z,1.30
2023-04-18T06:56:47.448Z,1.35
2023-04-18T06:59:14.406Z,0.90
2023-04-18T07:01:42.259Z,1.38
2023-04-18T07:04:09.192Z,1.42
2023-04-18T07:06:36.497Z,1.38
2023-04-18T07:09:03.459Z,1.50
2023-04-18T07:11:30.158Z,1.30
2023-04-18T07:13:56.939Z,1.10
2023-04-18T07:16:23.732Z,1.02
2023-04-18T07:18:51.693Z,1.20
2023-04-18T07:21:19.221Z,1.17
2023-04-18T07:23:46.445Z,0.90
2023-04-18T07:26:13.737Z,1.23
2023-04-18T07:28:40.554Z,0.90
2023-04-18T07:31:11.283Z,0.88
2023-04-18T07:33:38.781Z,0.88
2023-04-18T07:36:06.180Z,1.00
2023-04-18T07:38:35.332Z,1.08
2023-04-18T07:41:03.000Z,0.70
2023-04-18T07:43:30.082Z,0.88
2023-04-18T07:45:56.837Z,0.90
2023-04-18T07:48:25.143Z,0.80
2023-04-18T07:50:52.031Z,1.08
2023-04-18T07:53:19.028Z,0.80
2023-04-18T07:55:46.668Z,0.52
2023-04-18T07:58:14.053Z,0.95
2023-04-18T08:00:42.687Z,0.70
2023-04-18T08:03:13.113Z,0.75
2023-04-18T08:05:41.372Z,0.63
2023-04-18T08:08:09.847Z,0.73
2023-04-18T08:10:37.058Z,0.73
2023-04-18T08:13:04.416Z,1.08
2023-04-18T08:15:32.960Z,0.60
2023-04-18T08:18:01.115Z,0.68
2023-04-18T08:20:28.079Z,0.60
2023-04-18T08:23:06.243Z,0.60
2023-04-18T08:25:36.307Z,0.60
2023-04-18T08:28:04.181Z,0.60
2023-04-18T08:30:31.460Z,0.80
2023-04-18T08:33:00.172Z,0.82
2023-04-18T08:35:27.172Z,0.77
2023-04-18T08:37:53.874Z,0.50
2023-04-18T08:40:20.829Z,0.63
2023-04-18T08:42:48.059Z,0.52
2023-04-18T08:45:15.059Z,0.65
2023-04-18T08:47:42.568Z,0.60
2023-04-18T08:50:10.598Z,0.50
2023-04-18T08:52:45.021Z,0.60
2023-04-18T08:55:12.113Z,0.80
2023-04-18T08:57:39.831Z,0.63
2023-04-18T09:00:10.499Z,0.57
2023-04-18T09:02:42.795Z,0.82
2023-04-18T09:05:20.103Z,0.80
2023-04-18T09:07:48.864Z,1.02
2023-04-18T09:10:34.855Z,0.63
2023-04-18T09:13:06.254Z,0.77
2023-04-18T09:15:34.475Z,0.80
2023-04-18T09:18:03.055Z,0.73
2023-04-18T09:20:35.879Z,0.70
2023-04-18T09:23:11.141Z,0.50
2023-04-18T09:25:49.141Z,0.70
2023-04-18T09:28:29.128Z,0.60
2023-04-18T09:31:11.937Z,0.57
2023-04-18T09:33:43.288Z,0.63
2023-04-18T09:36:18.826Z,0.70
2023-04-18T09:38:46.142Z,0.80
2023-04-18T09:41:15.703Z,0.85
2023-04-18T09:43:43.248Z,0.65
2023-04-18T09:46:10.968Z,0.88
2023-04-18T09:48:38.191Z,0.93
2023-04-18T09:51:10.090Z,0.85
2023-04-18T09:53:41.634Z,0.90
2023-04-18T09:56:29.664Z,1.00
2023-04-18T09:59:01.640Z,0.82
2023-04-18T10:01:29.579Z,0.80
2023-04-18T10:03:57.781Z,1.00
2023-04-18T10:06:27.371Z,0.75
2023-04-18T10:08:55.231Z,1.10
2023-04-18T10:11:24.249Z,0.75
2023-04-18T10:13:56.005Z,0.80
2023-04-18T10:16:23.230Z,0.77
2023-04-18T10:18:51.169Z,0.73
2023-04-18T10:21:18.128Z,1.60
2023-04-18T10:23:48.741Z,0.90
2023-04-18T10:26:15.691Z,0.93
2023-04-18T10:28:57.733Z,0.95
2023-04-18T10:31:29.244Z,0.77
2023-04-18T10:36:30.338Z,0.85
2023-04-18T10:39:21.453Z,0.52
2023-04-18T10:41:50.598Z,0.90
2023-04-18T10:44:19.604Z,1.10
2023-04-18T10:46:52.465Z,0.85
2023-04-18T10:49:26.879Z,0.70
2023-04-18T10:54:35.912Z,0.95
2023-04-18T10:57:04.624Z,0.70
2023-04-18T10:59:34.186Z,0.55
2023-04-18T11:02:19.655Z,0.70
2023-04-18T11:04:54.518Z,0.63
2023-04-18T11:07:48.878Z,0.80
2023-04-18T11:10:24.541Z,0.68
2023-04-18T11:12:52.598Z,0.70
2023-04-18T11:15:22.246Z,0.73
2023-04-18T11:17:59.996Z,2.20
2023-04-18T11:20:27.387Z,0.98
2023-04-18T11:23:00.111Z,0.80
2023-04-18T11:25:32.298Z,0.73
2023-04-18T11:28:01.010Z,1.55
2023-04-18T11:30:29.784Z,0.65
2023-04-18T11:32:56.708Z,1.33
2023-04-18T11:35:23.515Z,0.82
2023-04-18T11:37:51.205Z,0.98
2023-04-18T11:40:18.287Z,0.70
2023-04-18T11:42:45.369Z,0.73
2023-04-18T11:45:13.831Z,0.70
2023-04-18T11:47:42.741Z,0.60
2023-04-18T11:50:11.613Z,0.95
2023-04-18T11:52:40.925Z,0.75
2023-04-18T11:55:18.386Z,0.80
2023-04-18T11:57:56.035Z,0.65
2023-04-18T12:00:38.615Z,0.43
2023-04-18T12:03:13.404Z,0.45
2023-04-18T12:08:11.934Z,0.98
2023-04-18T12:10:52.452Z,0.75
2023-04-18T12:13:26.099Z,0.63
2023-04-18T12:15:54.140Z,0.70
2023-04-18T12:18:21.474Z,0.60
2023-04-18T12:20:54.215Z,0.77
2023-04-18T12:23:37.075Z,0.70
2023-04-18T12:26:11.478Z,0.57
2023-04-18T12:28:39.430Z,1.48
2023-04-18T12:31:09.122Z,1.10
2023-04-18T12:33:38.820Z,0.85
2023-04-18T12:36:06.157Z,0.80
2023-04-18T12:38:32.798Z,0.80
2023-04-18T12:40:59.657Z,0.90
2023-04-18T12:43:26.620Z,0.90
2023-04-18T12:45:53.659Z,0.75
2023-04-18T12:48:21.068Z,0.80
2023-04-18T12:50:48.034Z,0.70
2023-04-18T12:53:15.468Z,0.80
2023-04-18T12:55:42.329Z,1.27
2023-04-18T12:58:09.049Z,1.13
2023-04-18T13:00:35.914Z,0.73
2023-04-18T13:03:03.042Z,0.93
2023-04-18T13:05:33.101Z,0.60
2023-04-18T13:10:31.514Z,0.80
2023-04-18T13:12:58.330Z,0.70
2023-04-18T13:15:26.038Z,0.70
2023-04-18T13:17:53.219Z,0.63
2023-04-18T13:20:20.041Z,0.75
2023-04-18T13:22:46.741Z,0.65
2023-04-18T13:25:13.869Z,0.60
2023-04-18T13:27:42.010Z,0.80
2023-04-18T13:30:11.221Z,0.70
2023-04-18T13:32:39.323Z,0.80
2023-04-18T13:35:10.709Z,0.75
2023-04-18T13:37:38.289Z,0.73
2023-04-18T13:40:06.994Z,0.73
2023-04-18T13:42:35.592Z,0.65
2023-04-18T13:45:02.832Z,1.10
2023-04-18T13:47:30.077Z,0.95
2023-04-18T13:49:58.081Z,0.98
2023-04-18T13:52:25.688Z,1.00
2023-04-18T13:54:52.453Z,1.08
2023-04-18T13:57:19.156Z,0.85
2023-04-18T13:59:45.814Z,0.90
2023-04-18T14:02:13.355Z,0.85
2023-04-18T14:04:40.132Z,0.93
2023-04-18T14:07:07.997Z,3.53
2023-04-18T14:09:34.895Z,0.80
2023-04-18T14:12:02.150Z,0.90
2023-04-18T14:14:29.209Z,0.77
2023-04-18T14:16:56.108Z,1.08
2023-04-18T14:19:22.947Z,0.90
2023-04-18T14:21:49.829Z,1.00
2023-04-18T14:24:16.645Z,0.80
2023-04-18T14:26:43.965Z,0.90
2023-04-18T14:29:11.101Z,2.03
2023-04-18T14:31:38.163Z,1.00
2023-04-18T14:34:05.634Z,1.08
2023-04-18T14:36:32.718Z,1.33
2023-04-18T14:38:59.484Z,0.85
2023-04-18T14:41:26.243Z,1.85
2023-04-18T14:43:53.128Z,1.10
2023-04-18T14:46:21.084Z,1.58
2023-04-18T14:48:47.897Z,1.63
2023-04-18T14:51:16.528Z,1.00
2023-04-18T14:53:44.194Z,1.17
2023-04-18T14:56:11.141Z,1.05
2023-04-18T14:58:37.829Z,0.88
2023-04-18T15:01:05.002Z,0.85
2023-04-18T15:03:32.061Z,0.77
2023-04-18T15:05:59.043Z,1.02
2023-04-18T15:08:26.037Z,0.60
2023-04-18T15:10:52.736Z,0.80
2023-04-18T15:13:19.423Z,0.52
2023-04-18T15:15:53.585Z,0.47
2023-04-18T15:18:20.638Z,0.50
2023-04-18T15:20:47.519Z,0.65
2023-04-18T15:23:14.947Z,0.50
2023-04-18T15:25:42.749Z,0.55
2023-04-18T15:28:09.520Z,0.82
2023-04-18T15:30:36.446Z,1.00
2023-04-18T15:33:03.312Z,1.10
2023-04-18T15:35:30.219Z,0.85
2023-04-18T15:37:57.518Z,0.88
2023-04-18T15:40:24.492Z,1.13
2023-04-18T15:42:53.461Z,1.10
2023-04-18T15:45:20.995Z,0.93
2023-04-18T15:47:48.071Z,1.08
2023-04-18T15:50:16.155Z,0.80
2023-04-18T15:52:44.104Z,0.80
2023-04-18T15:55:13.056Z,0.73
2023-04-18T15:57:41.550Z,0.80
2023-04-18T16:00:19.770Z,0.80
2023-04-18T16:02:47.163Z,0.82
2023-04-18T16:05:14.246Z,0.88
2023-04-18T16:07:42.102Z,0.70
2023-04-18T16:10:10.479Z,0.65
2023-04-18T16:12:38.119Z,0.90
2023-04-18T16:15:09.350Z,0.98
2023-04-18T16:17:37.145Z,0.77
2023-04-18T16:20:06.057Z,0.88
2023-04-18T16:22:32.959Z,0.82
2023-04-18T16:24:59.744Z,2.13
2023-04-18T16:27:26.571Z,1.00
2023-04-18T16:29:53.800Z,0.90
2023-04-18T16:32:20.512Z,1.05
2023-04-18T16:34:47.207Z,1.13
2023-04-18T16:37:14.046Z,1.00
2023-04-18T16:39:40.789Z,1.23
2023-04-18T16:42:07.592Z,2.03
2023-04-18T16:44:34.286Z,1.30
2023-04-18T16:47:01.338Z,1.80
2023-04-18T16:49:28.091Z,1.08
2023-04-18T16:51:54.793Z,1.27
2023-04-18T16:54:21.600Z,1.27
2023-04-18T16:56:48.678Z,1.58
2023-04-18T16:59:15.759Z,1.10
2023-04-18T17:01:42.584Z,1.20
2023-04-18T17:04:09.413Z,1.67
2023-04-18T17:06:36.439Z,1.63
2023-04-18T17:09:06.425Z,1.00
2023-04-18T17:11:38.869Z,0.90
2023-04-18T17:14:06.509Z,2.67
2023-04-18T17:16:33.341Z,1.30
2023-04-18T17:19:00.700Z,1.30
2023-04-18T17:21:27.558Z,1.05
2023-04-18T17:23:54.794Z,1.02
2023-04-18T17:26:24.296Z,3.03
2023-04-18T17:28:51.360Z,3.35
2023-04-18T17:31:18.009Z,4.97
2023-04-18T17:33:45.570Z,2.00
2023-04-18T17:36:12.308Z,1.30
2023-04-18T17:38:40.551Z,1.25
2023-04-18T17:41:07.897Z,1.10
2023-04-18T17:43:34.569Z,1.58
2023-04-18T17:46:03.810Z,1.30
2023-04-18T17:48:30.846Z,1.15
2023-04-18T17:50:57.551Z,1.40
2023-04-18T17:53:24.458Z,1.90
2023-04-18T17:55:52.361Z,2.00
2023-04-18T17:58:19.946Z,2.30
2023-04-18T18:00:46.665Z,2.15
2023-04-18T18:03:17.582Z,1.13
2023-04-18T18:05:48.952Z,1.15
2023-04-18T18:08:15.975Z,1.10
2023-04-18T18:10:42.984Z,1.13
2023-04-18T18:13:10.052Z,1.30
2023-04-18T18:15:36.685Z,1.60
2023-04-18T18:18:03.524Z,1.10
2023-04-18T18:20:30.823Z,1.60
2023-04-18T18:22:59.675Z,1.15
2023-04-18T18:25:27.060Z,1.30
2023-04-18T18:27:54.742Z,1.30
2023-04-18T18:30:21.536Z,1.20
2023-04-18T18:32:48.429Z,1.25
2023-04-18T18:35:15.208Z,1.00
2023-04-18T18:37:42.071Z,1.70
2023-04-18T18:40:09.437Z,1.15
2023-04-18T18:42:36.692Z,1.10
2023-04-18T18:45:04.059Z,1.30
2023-04-18T18:47:30.968Z,1.20
2023-04-18T18:49:57.779Z,1.50
2023-04-18T18:52:24.880Z,1.10
2023-04-18T18:54:51.770Z,1.20
2023-04-18T18:57:18.430Z,1.20
2023-04-18T18:59:45.054Z,1.30
2023-04-18T19:02:11.998Z,0.90
2023-04-18T19:04:39.374Z,1.50
2023-04-18T19:07:06.329Z,2.10
2023-04-18T19:09:33.506Z,1.40
2023-04-18T19:12:01.165Z,1.40
2023-04-18T19:14:28.122Z,1.17
2023-04-18T19:16:56.607Z,1.27
2023-04-18T19:19:23.691Z,1.55
2023-04-18T19:21:50.378Z,1.80
2023-04-18T19:24:17.925Z,1.35
2023-04-18T19:26:44.645Z,1.75
2023-04-18T19:29:14.320Z,1.30
2023-04-18T19:31:43.573Z,1.40
2023-04-18T19:34:10.895Z,1.40
2023-04-18T19:36:37.691Z,1.58
2023-04-18T19:39:04.381Z,1.33
2023-04-18T19:41:31.328Z,2.00
2023-04-18T19:43:58.351Z,1.65
2023-04-18T19:46:25.147Z,2.60
2023-04-18T19:48:51.851Z,2.00
2023-04-18T19:51:18.588Z,1.50
2023-04-18T19:53:45.751Z,1.73
2023-04-18T19:56:14.290Z,1.50
2023-04-18T19:58:46.728Z,1.70
2023-04-18T20:01:18.855Z,3.08
2023-04-18T20:03:47.057Z,2.50
2023-04-18T20:06:14.215Z,2.30
2023-04-18T20:08:45.897Z,2.60
2023-04-18T20:11:16.765Z,2.78
2023-04-18T20:13:43.404Z,2.33
2023-04-18T20:16:12.164Z,2.67
2023-04-18T20:18:41.475Z,2.92
2023-04-18T20:21:09.382Z,1.90
2023-04-18T20:23:36.963Z,2.00
2023-04-18T20:26:04.496Z,2.35
2023-04-18T20:28:31.970Z,2.30
2023-04-18T20:30:59.244Z,2.38
2023-04-18T20:33:26.194Z,2.10
2023-04-18T20:35:54.710Z,1.95
2023-04-18T20:38:25.962Z,1.90
2023-04-18T20:40:54.265Z,2.83
2023-04-18T20:43:22.716Z,2.65
2023-04-18T20:45:53.839Z,2.83
2023-04-18T20:48:21.166Z,2.00
2023-04-18T20:50:51.441Z,2.50
2023-04-18T20:53:20.759Z,2.30
2023-04-18T20:55:48.260Z,2.30
2023-04-18T20:58:14.944Z,2.40
2023-04-18T21:00:41.781Z,2.25
2023-04-18T21:03:08.747Z,2.95
2023-04-18T21:05:35.696Z,2.17
2023-04-18T21:08:02.436Z,2.05
2023-04-18T21:10:29.056Z,2.25
2023-04-18T21:12:57.330Z,2.38
2023-04-18T21:15:24.263Z,2.38
2023-04-18T21:17:51.346Z,2.30
2023-04-18T21:20:18.557Z,2.00
2023-04-18T21:22:45.308Z,2.20
2023-04-18T21:25:12.082Z,2.17
2023-04-18T21:27:38.863Z,2.53
2023-04-18T21:30:06.689Z,2.13
2023-04-18T21:32:33.597Z,2.10
2023-04-18T21:35:01.503Z,2.30
2023-04-18T21:37:28.628Z,1.90
2023-04-18T21:39:55.577Z,2.17
2023-04-18T21:42:22.338Z,2.30
2023-04-18T21:44:49.050Z,2.08
2023-04-18T21:47:15.959Z,1.92
2023-04-18T21:49:42.937Z,1.60
2023-04-18T21:52:09.766Z,1.70
2023-04-18T21:54:36.426Z,1.50
2023-04-18T21:57:03.352Z,1.80
2023-04-18T21:59:30.617Z,1.63
2023-04-18T22:01:57.369Z,1.63
2023-04-18T22:04:26.206Z,1.63
2023-04-18T22:06:54.271Z,2.90
2023-04-18T22:09:21.432Z,1.65
2023-04-18T22:11:48.428Z,1.77
2023-04-18T22:14:15.256Z,1.60
2023-04-18T22:16:42.319Z,1.73
2023-04-18T22:19:09.107Z,1.33
2023-04-18T22:21:36.048Z,1.50
2023-04-18T22:24:03.048Z,1.30
2023-04-18T22:26:29.755Z,1.08
2023-04-18T22:28:56.403Z,1.50
2023-04-18T22:31:23.188Z,1.50
2023-04-18T22:33:50.045Z,1.20
2023-04-18T22:36:16.810Z,1.20
2023-04-18T22:38:43.523Z,1.80
2023-04-18T22:41:10.357Z,1.30
2023-04-18T22:43:37.021Z,1.10
2023-04-18T22:46:03.753Z,1.10
2023-04-18T22:48:31.141Z,1.25
2023-04-18T22:50:57.885Z,1.30
2023-04-18T22:53:24.553Z,1.27
2023-04-18T22:55:51.254Z,1.30
2023-04-18T22:58:17.939Z,1.58
2023-04-18T23:00:44.815Z,0.98
2023-04-18T23:03:11.596Z,1.05
2023-04-18T23:05:38.561Z,1.35
2023-04-18T23:08:06.970Z,1.15
2023-04-18T23:10:34.157Z,1.38
2023-04-18T23:13:00.957Z,1.38
2023-04-18T23:15:27.659Z,1.30
2023-04-18T23:17:54.500Z,1.55
2023-04-18T23:20:21.776Z,1.65
2023-04-18T23:22:51.344Z,1.50
2023-04-18T23:25:19.355Z,1.55
2023-04-18T23:27:46.271Z,1.88
2023-04-18T23:30:13.129Z,1.90
2023-04-18T23:32:39.756Z,1.70
2023-04-18T23:35:06.960Z,2.08
2023-04-18T23:37:33.615Z,1.85
2023-04-18T23:40:00.577Z,2.03
2023-04-18T23:42:27.465Z,2.20
2023-04-18T23:44:54.650Z,2.10
2023-04-18T23:47:21.833Z,2.03
2023-04-18T23:49:48.636Z,1.98
2023-04-18T23:52:15.430Z,1.90
2023-04-18T23:54:42.236Z,1.80
2023-04-18T23:57:08.942Z,1.80
2023-04-18T23:59:35.654Z,1.90
